createdAt,value
2023-01-22T00:00:41.060Z,103421.41
2023-01-22T00:01:42.928Z,103421.41
2023-01-22T00:02:44.903Z,103413.66
2023-01-22T00:03:47.269Z,103421.53
2023-01-22T00:04:49.268Z,103416.25
2023-01-22T00:05:52.410Z,103414.56
2023-01-22T00:06:54.221Z,103407.53
2023-01-22T00:07:56.249Z,103410.41
2023-01-22T00:08:58.555Z,103393.91
2023-01-22T00:10:02.963Z,103407.78
2023-01-22T00:11:05.393Z,103414.78
2023-01-22T00:12:07.743Z,103417.50
2023-01-22T00:13:09.497Z,103411.31
2023-01-22T00:14:11.422Z,103408.69
2023-01-22T00:15:13.276Z,103398.31
2023-01-22T00:16:17.306Z,103413.28
2023-01-22T00:17:19.168Z,103406.28
2023-01-22T00:18:21.044Z,103409.81
2023-01-22T00:19:22.807Z,103408.06
2023-01-22T00:20:24.592Z,103383.75
2023-01-22T00:21:27.793Z,103400.34
2023-01-22T00:22:30.875Z,103411.72
2023-01-22T00:23:33.308Z,103409.97
2023-01-22T00:24:35.074Z,103402.09
2023-01-22T00:25:37.062Z,103403.84
2023-01-22T00:26:39.197Z,103403.00
2023-01-22T00:27:41.977Z,103402.19
2023-01-22T00:28:47.511Z,103396.00
2023-01-22T00:29:49.272Z,103389.06
2023-01-22T00:30:57.820Z,103405.78
2023-01-22T00:31:59.779Z,103382.19
2023-01-22T00:33:01.707Z,103375.34
2023-01-22T00:34:04.584Z,103393.50
2023-01-22T00:35:07.246Z,103403.25
2023-01-22T00:36:12.574Z,103393.78
2023-01-22T00:37:15.594Z,103395.34
2023-01-22T00:38:19.561Z,103385.91
2023-01-22T00:39:21.478Z,103376.31
2023-01-22T00:40:23.310Z,103401.63
2023-01-22T00:41:25.624Z,103405.19
2023-01-22T00:42:27.860Z,103396.41
2023-01-22T00:43:30.875Z,103408.81
2023-01-22T00:44:32.663Z,103405.31
2023-01-22T00:45:34.609Z,103393.97
2023-01-22T00:46:36.654Z,103404.53
2023-01-22T00:47:38.453Z,103405.41
2023-01-22T00:48:40.920Z,103380.09
2023-01-22T00:49:42.758Z,103401.00
2023-01-22T00:50:44.564Z,103399.28
2023-01-22T00:51:46.407Z,103394.03
2023-01-22T00:52:48.355Z,103381.91
2023-01-22T00:53:50.253Z,103402.00
2023-01-22T00:54:52.056Z,103394.06
2023-01-22T00:55:58.939Z,103386.19
2023-01-22T00:57:00.805Z,103395.00
2023-01-22T00:58:02.648Z,103397.72
2023-01-22T00:59:10.325Z,103406.50
2023-01-22T01:00:18.257Z,103400.38
2023-01-22T01:01:21.849Z,103396.78
2023-01-22T01:02:23.630Z,103399.50
2023-01-22T01:03:28.330Z,103396.00
2023-01-22T01:04:30.119Z,103393.34
2023-01-22T01:05:31.951Z,103382.13
2023-01-22T01:06:33.923Z,103397.00
2023-01-22T01:07:35.743Z,103389.97
2023-01-22T01:08:42.262Z,103397.94
2023-01-22T01:09:44.066Z,103401.44
2023-01-22T01:10:46.052Z,103391.97
2023-01-22T01:11:47.953Z,103403.25
2023-01-22T01:12:49.771Z,103402.41
2023-01-22T01:13:54.869Z,103400.66
2023-01-22T01:14:56.700Z,103396.25
2023-01-22T01:16:04.220Z,103404.22
2023-01-22T01:17:06.105Z,103392.78
2023-01-22T01:18:12.989Z,103383.16
2023-01-22T01:19:19.311Z,103390.94
2023-01-22T01:20:25.350Z,103395.34
2023-01-22T01:21:28.443Z,103351.06
2023-01-22T01:22:30.242Z,103384.91
2023-01-22T01:23:32.101Z,103389.31
2023-01-22T01:24:36.583Z,103374.59
2023-01-22T01:25:41.231Z,103392.94
2023-01-22T01:26:43.644Z,103388.50
2023-01-22T01:27:45.428Z,103387.66
2023-01-22T01:28:47.837Z,103392.06
2023-01-22T01:29:50.042Z,103388.56
2023-01-22T01:30:52.116Z,103388.59
2023-01-22T01:31:54.788Z,103389.50
2023-01-22T01:32:56.719Z,103392.16
2023-01-22T01:33:58.902Z,103391.31
2023-01-22T01:35:00.758Z,103390.44
2023-01-22T01:36:06.593Z,103394.00
2023-01-22T01:37:08.678Z,103392.38
2023-01-22T01:38:10.517Z,103399.31
2023-01-22T01:39:12.297Z,103408.19
2023-01-22T01:40:14.116Z,103403.78
2023-01-22T01:41:20.730Z,103403.91
2023-01-22T01:42:34.588Z,103400.28
2023-01-22T01:43:36.492Z,103409.94
2023-01-22T01:44:40.479Z,103405.59
2023-01-22T01:45:43.121Z,103405.59
2023-01-22T01:46:55.864Z,103397.75
2023-01-22T01:48:23.666Z,103404.63
2023-01-22T01:49:31.173Z,103400.19
2023-01-22T01:50:33.774Z,103402.88
2023-01-22T01:51:36.977Z,103396.81
2023-01-22T01:52:39.042Z,103394.22
2023-01-22T01:53:42.650Z,103396.88
2023-01-22T01:54:50.639Z,103402.19
2023-01-22T01:55:54.699Z,103397.81
2023-01-22T01:57:04.129Z,103404.91
2023-01-22T01:58:21.357Z,103400.47
2023-01-22T01:59:23.965Z,103392.69
2023-01-22T02:00:29.932Z,103410.22
2023-01-22T02:01:32.984Z,103410.25
2023-01-22T02:02:34.852Z,103405.94
2023-01-22T02:03:37.378Z,103406.78
2023-01-22T02:04:39.502Z,103405.97
2023-01-22T02:05:41.435Z,103405.97
2023-01-22T02:06:43.221Z,103398.28
2023-01-22T02:07:45.308Z,103410.47
2023-01-22T02:08:50.419Z,103400.75
2023-01-22T02:09:52.252Z,103399.00
2023-01-22T02:10:54.325Z,103396.44
2023-01-22T02:11:56.219Z,103401.66
2023-01-22T02:13:03.466Z,103398.16
2023-01-22T02:14:09.393Z,103391.94
2023-01-22T02:15:11.742Z,103388.41
2023-01-22T02:16:13.705Z,103380.72
2023-01-22T02:17:19.420Z,103384.91
2023-01-22T02:18:24.798Z,103391.97
2023-01-22T02:19:26.573Z,103379.63
2023-01-22T02:20:28.360Z,103386.75
2023-01-22T02:21:36.319Z,103382.38
2023-01-22T02:22:39.278Z,103371.06
2023-01-22T02:23:41.367Z,103374.59
2023-01-22T02:24:43.387Z,103373.72
2023-01-22T02:25:45.592Z,103385.91
2023-01-22T02:26:48.098Z,103390.34
2023-01-22T02:27:54.253Z,103369.31
2023-01-22T02:28:57.759Z,103399.19
2023-01-22T02:30:03.067Z,103393.91
2023-01-22T02:31:05.055Z,103399.19
2023-01-22T02:32:08.978Z,103400.09
2023-01-22T02:33:11.967Z,103389.66
2023-01-22T02:34:16.680Z,103380.88
2023-01-22T02:35:21.432Z,103387.75
2023-01-22T02:36:24.577Z,103385.19
2023-01-22T02:37:26.760Z,103378.09
2023-01-22T02:38:30.595Z,103382.53
2023-01-22T02:39:34.155Z,103383.41
2023-01-22T02:40:49.283Z,103386.06
2023-01-22T02:41:54.165Z,103386.03
2023-01-22T02:42:56.886Z,103386.06
2023-01-22T02:43:58.808Z,103381.03
2023-01-22T02:45:00.615Z,103388.00
2023-01-22T02:46:02.672Z,103395.88
2023-01-22T02:47:04.730Z,103386.19
2023-01-22T02:48:07.610Z,103387.91
2023-01-22T02:49:10.422Z,103386.19
2023-01-22T02:50:12.853Z,103384.44
2023-01-22T02:51:15.450Z,103380.88
2023-01-22T02:52:19.302Z,103372.91
2023-01-22T02:53:22.163Z,103374.81
2023-01-22T02:54:24.207Z,103379.13
2023-01-22T02:55:26.096Z,103385.34
2023-01-22T02:56:28.365Z,103379.19
2023-01-22T02:57:31.476Z,103377.47
2023-01-22T02:58:34.777Z,103366.97
2023-01-22T02:59:36.782Z,103380.97
2023-01-22T03:00:38.654Z,103380.06
2023-01-22T03:01:40.671Z,103389.84
2023-01-22T03:02:42.530Z,103363.69
2023-01-22T03:03:46.087Z,103384.53
2023-01-22T03:04:50.184Z,103373.94
2023-01-22T03:05:52.275Z,103373.94
2023-01-22T03:06:54.178Z,103369.53
2023-01-22T03:07:58.583Z,103366.25
2023-01-22T03:09:01.179Z,103379.34
2023-01-22T03:10:06.180Z,103353.97
2023-01-22T03:11:08.065Z,103371.38
2023-01-22T03:12:09.958Z,103371.38
2023-01-22T03:13:30.944Z,103364.50
2023-01-22T03:14:51.465Z,103362.50
2023-01-22T03:16:12.460Z,103363.31
2023-01-22T03:17:32.718Z,103361.47
2023-01-22T03:18:53.692Z,103360.63
2023-01-22T03:20:14.190Z,103359.75
2023-01-22T03:21:16.767Z,103355.34
2023-01-22T03:22:19.278Z,103355.47
2023-01-22T03:23:21.155Z,103344.31
2023-01-22T03:24:23.301Z,103355.66
2023-01-22T03:25:25.198Z,103356.56
2023-01-22T03:26:28.971Z,103340.06
2023-01-22T03:27:31.822Z,103357.56
2023-01-22T03:28:34.054Z,103344.50
2023-01-22T03:29:38.830Z,103340.75
2023-01-22T03:30:42.475Z,103344.31
2023-01-22T03:31:48.390Z,103349.63
2023-01-22T03:32:50.391Z,103349.63
2023-01-22T03:33:52.324Z,103352.28
2023-01-22T03:34:54.288Z,103332.41
2023-01-22T03:36:06.816Z,103358.50
2023-01-22T03:37:12.964Z,103349.75
2023-01-22T03:38:17.306Z,103356.66
2023-01-22T03:39:19.249Z,103335.75
2023-01-22T03:40:21.045Z,103355.03
2023-01-22T03:41:22.996Z,103347.97
2023-01-22T03:42:25.866Z,103350.56
2023-01-22T03:43:27.708Z,103334.09
2023-01-22T03:44:29.600Z,103352.41
2023-01-22T03:45:35.311Z,103343.63
2023-01-22T03:46:42.304Z,103338.22
2023-01-22T03:47:44.167Z,103332.06
2023-01-22T03:49:00.803Z,103335.47
2023-01-22T03:50:03.507Z,103326.78
2023-01-22T03:51:08.249Z,103334.75
2023-01-22T03:52:10.390Z,103321.69
2023-01-22T03:53:12.177Z,103329.53
2023-01-22T03:54:15.828Z,103328.78
2023-01-22T03:55:17.667Z,103334.84
2023-01-22T03:56:22.129Z,103334.84
2023-01-22T03:57:24.396Z,103331.34
2023-01-22T03:58:26.659Z,103326.97
2023-01-22T03:59:28.462Z,103331.38
2023-01-22T04:00:30.468Z,103315.66
2023-01-22T04:01:33.310Z,103323.50
2023-01-22T04:02:35.250Z,103324.31
2023-01-22T04:03:47.262Z,103322.47
2023-01-22T04:04:50.496Z,103322.50
2023-01-22T04:05:52.838Z,103319.00
2023-01-22T04:06:54.744Z,103320.84
2023-01-22T04:07:57.520Z,103315.53
2023-01-22T04:09:03.463Z,103325.22
2023-01-22T04:10:11.826Z,103299.00
2023-01-22T04:11:14.436Z,103315.63
2023-01-22T04:12:16.680Z,103315.63
2023-01-22T04:13:19.100Z,103316.44
2023-01-22T04:14:24.040Z,103307.88
2023-01-22T04:15:34.708Z,103318.22
2023-01-22T04:16:42.684Z,103322.59
2023-01-22T04:18:11.039Z,103312.00
2023-01-22T04:19:36.376Z,103319.75
2023-01-22T04:20:38.723Z,103306.66
2023-01-22T04:21:53.065Z,103309.31
2023-01-22T04:22:55.418Z,103314.72
2023-01-22T04:23:57.680Z,103302.56
2023-01-22T04:24:59.527Z,103320.97
2023-01-22T04:26:01.965Z,103302.63
2023-01-22T04:27:04.688Z,103313.06
2023-01-22T04:28:08.571Z,103306.97
2023-01-22T04:29:11.112Z,103313.09
2023-01-22T04:30:13.428Z,103307.00
2023-01-22T04:31:15.390Z,103314.91
2023-01-22T04:32:28.659Z,103304.31
2023-01-22T04:33:40.633Z,103306.97
2023-01-22T04:34:50.309Z,103309.59
2023-01-22T04:35:58.659Z,103310.59
2023-01-22T04:37:00.541Z,103306.25
2023-01-22T04:38:08.215Z,103308.91
2023-01-22T04:39:10.193Z,103326.44
2023-01-22T04:40:12.408Z,103315.84
2023-01-22T04:41:14.372Z,103321.16
2023-01-22T04:42:16.229Z,103323.00
2023-01-22T04:43:18.137Z,103328.28
2023-01-22T04:44:19.984Z,103332.72
2023-01-22T04:45:21.876Z,103299.63
2023-01-22T04:46:23.857Z,103339.81
2023-01-22T04:47:25.885Z,103327.41
2023-01-22T04:48:27.783Z,103336.28
2023-01-22T04:49:29.607Z,103330.97
2023-01-22T04:50:33.261Z,103331.88
2023-01-22T04:51:35.047Z,103313.69
2023-01-22T04:52:37.081Z,103336.28
2023-01-22T04:53:39.070Z,103332.81
2023-01-22T04:54:42.422Z,103335.41
2023-01-22T04:55:44.428Z,103333.69
2023-01-22T04:56:47.503Z,103331.88
2023-01-22T04:57:49.671Z,103331.06
2023-01-22T04:58:51.532Z,103336.34
2023-01-22T04:59:53.489Z,103337.19
2023-01-22T05:00:57.039Z,103330.31
2023-01-22T05:01:59.031Z,103322.38
2023-01-22T05:03:02.667Z,103336.44
2023-01-22T05:04:05.469Z,103328.66
2023-01-22T05:05:10.899Z,103341.72
2023-01-22T05:06:12.692Z,103332.97
2023-01-22T05:07:14.580Z,103354.00
2023-01-22T05:08:17.673Z,103336.38
2023-01-22T05:09:20.243Z,103341.66
2023-01-22T05:10:30.281Z,103346.06
2023-01-22T05:11:32.820Z,103331.25
2023-01-22T05:12:37.266Z,103308.59
2023-01-22T05:13:39.082Z,103336.56
2023-01-22T05:14:41.085Z,103347.88
2023-01-22T05:15:44.057Z,103332.16
2023-01-22T05:16:49.222Z,103328.59
2023-01-22T05:17:51.202Z,103339.94
2023-01-22T05:18:53.074Z,103328.66
2023-01-22T05:19:54.890Z,103337.34
2023-01-22T05:20:57.048Z,103341.75
2023-01-22T05:22:02.505Z,103332.91
2023-01-22T05:23:06.646Z,103325.84
2023-01-22T05:24:09.882Z,103335.59
2023-01-22T05:25:13.704Z,103320.75
2023-01-22T05:26:15.815Z,103327.59
2023-01-22T05:27:27.256Z,103328.47
2023-01-22T05:28:36.449Z,103316.97
2023-01-22T05:30:06.371Z,103326.56
2023-01-22T05:31:13.735Z,103323.94
2023-01-22T05:32:41.579Z,103327.41
2023-01-22T05:33:44.676Z,103325.84
2023-01-22T05:34:48.060Z,103337.28
2023-01-22T05:35:57.688Z,103328.56
2023-01-22T05:36:59.702Z,103333.88
2023-01-22T05:38:03.251Z,103324.41
2023-01-22T05:39:05.222Z,103341.84
2023-01-22T05:40:08.892Z,103344.56
2023-01-22T05:41:10.987Z,103322.75
2023-01-22T05:42:16.030Z,103342.84
2023-01-22T05:43:20.535Z,103310.59
2023-01-22T05:44:28.339Z,103320.97
2023-01-22T05:45:30.833Z,103330.50
2023-01-22T05:47:02.045Z,103342.66
2023-01-22T05:48:18.237Z,103330.41
2023-01-22T05:49:43.795Z,103322.56
2023-01-22T05:50:48.402Z,103335.72
2023-01-22T05:51:50.389Z,103330.44
2023-01-22T05:52:55.164Z,103333.16
2023-01-22T05:53:57.078Z,103320.22
2023-01-22T05:55:02.862Z,103333.22
2023-01-22T05:56:11.620Z,103327.97
2023-01-22T05:57:14.829Z,103339.44
2023-01-22T05:58:16.680Z,103337.69
2023-01-22T05:59:21.979Z,103347.41
2023-01-22T06:00:33.516Z,103342.03
2023-01-22T06:01:38.006Z,103339.47
2023-01-22T06:02:39.857Z,103342.13
2023-01-22T06:03:41.832Z,103335.09
2023-01-22T06:04:43.705Z,103326.41
2023-01-22T06:06:05.918Z,103336.81
2023-01-22T06:07:07.873Z,103338.59
2023-01-22T06:08:09.841Z,103334.19
2023-01-22T06:09:19.285Z,103332.38
2023-01-22T06:10:21.393Z,103336.91
2023-01-22T06:11:23.718Z,103346.59
2023-01-22T06:12:25.788Z,103347.53
2023-01-22T06:13:28.341Z,103342.25
2023-01-22T06:14:33.996Z,103348.44
2023-01-22T06:15:36.766Z,103351.94
2023-01-22T06:16:58.920Z,103347.44
2023-01-22T06:18:14.635Z,103334.34
2023-01-22T06:19:16.512Z,103349.25
2023-01-22T06:20:27.427Z,103346.59
2023-01-22T06:21:29.267Z,103347.53
2023-01-22T06:22:31.512Z,103351.09
2023-01-22T06:23:36.056Z,103328.31
2023-01-22T06:24:37.923Z,103342.31
2023-01-22T06:25:41.626Z,103344.06
2023-01-22T06:26:51.626Z,103329.19
2023-01-22T06:27:54.757Z,103344.03
2023-01-22T06:28:56.678Z,103343.22
2023-01-22T06:29:58.834Z,103346.72
2023-01-22T06:31:05.670Z,103347.69
2023-01-22T06:32:08.311Z,103349.44
2023-01-22T06:33:10.288Z,103330.25
2023-01-22T06:34:12.860Z,103348.53
2023-01-22T06:35:14.735Z,103341.59
2023-01-22T06:36:16.746Z,103337.19
2023-01-22T06:37:18.591Z,103342.41
2023-01-22T06:38:22.041Z,103338.03
2023-01-22T06:39:23.986Z,103343.25
2023-01-22T06:40:35.736Z,103351.16
2023-01-22T06:41:39.285Z,103343.22
2023-01-22T06:42:43.936Z,103330.22
2023-01-22T06:43:45.887Z,103346.78
2023-01-22T06:44:50.915Z,103337.94
2023-01-22T06:45:55.096Z,103340.66
2023-01-22T06:47:12.927Z,103346.69
2023-01-22T06:48:15.025Z,103352.03
2023-01-22T06:49:16.920Z,103309.34
2023-01-22T06:50:18.977Z,103338.03
2023-01-22T06:51:21.043Z,103344.22
2023-01-22T06:52:22.891Z,103345.97
2023-01-22T06:53:24.815Z,103332.75
2023-01-22T06:54:26.665Z,103322.34
2023-01-22T06:55:28.675Z,103331.88
2023-01-22T06:56:31.682Z,103330.16
2023-01-22T06:57:35.681Z,103323.25
2023-01-22T06:58:37.472Z,103338.03
2023-01-22T06:59:39.289Z,103339.84
2023-01-22T07:00:41.215Z,103335.44
2023-01-22T07:01:43.059Z,103328.38
2023-01-22T07:02:45.258Z,103341.59
2023-01-22T07:03:47.057Z,103343.34
2023-01-22T07:04:48.952Z,103339.84
2023-01-22T07:05:57.587Z,103331.94
2023-01-22T07:06:59.467Z,103321.34
2023-01-22T07:08:01.980Z,103340.66
2023-01-22T07:09:03.926Z,103336.22
2023-01-22T07:10:05.891Z,103326.50
2023-01-22T07:11:08.097Z,103329.16
2023-01-22T07:12:09.943Z,103322.06
2023-01-22T07:13:14.326Z,103318.50
2023-01-22T07:14:19.677Z,103321.97
2023-01-22T07:15:26.790Z,103319.22
2023-01-22T07:16:28.694Z,103326.25
2023-01-22T07:17:30.540Z,103325.34
2023-01-22T07:18:32.325Z,103324.41
2023-01-22T07:19:34.252Z,103326.97
2023-01-22T07:20:36.508Z,103322.66
2023-01-22T07:21:38.361Z,103325.94
2023-01-22T07:22:40.158Z,103325.84
2023-01-22T07:23:42.400Z,103310.22
2023-01-22T07:24:44.234Z,103332.78
2023-01-22T07:25:46.395Z,103329.13
2023-01-22T07:26:49.471Z,103331.72
2023-01-22T07:27:51.288Z,103339.53
2023-01-22T07:28:53.261Z,103325.56
2023-01-22T07:29:55.106Z,103342.88
2023-01-22T07:30:57.229Z,103344.50
2023-01-22T07:31:59.209Z,103339.13
2023-01-22T07:33:02.170Z,103344.31
2023-01-22T07:34:04.397Z,103341.56
2023-01-22T07:35:06.543Z,103350.31
2023-01-22T07:36:08.457Z,103351.06
2023-01-22T07:37:10.463Z,103345.66
2023-01-22T07:38:12.336Z,103340.22
2023-01-22T07:39:14.187Z,103335.84
2023-01-22T07:40:16.583Z,103341.84
2023-01-22T07:41:25.833Z,103337.28
2023-01-22T07:42:28.066Z,103342.38
2023-01-22T07:43:30.200Z,103346.78
2023-01-22T07:44:32.027Z,103352.88
2023-01-22T07:45:34.675Z,103353.69
2023-01-22T07:46:36.550Z,103353.56
2023-01-22T07:47:38.653Z,103348.16
2023-01-22T07:48:40.542Z,103352.53
2023-01-22T07:49:42.412Z,103339.38
2023-01-22T07:50:44.253Z,103354.16
2023-01-22T07:51:46.136Z,103354.06
2023-01-22T07:52:48.417Z,103340.81
2023-01-22T07:53:50.209Z,103341.53
2023-01-22T07:54:52.091Z,103353.84
2023-01-22T07:55:54.323Z,103327.63
2023-01-22T07:56:56.131Z,103343.13
2023-01-22T07:57:59.617Z,103346.66
2023-01-22T07:59:01.452Z,103332.75
2023-01-22T08:00:04.462Z,103350.94
2023-01-22T08:01:14.413Z,103347.28
2023-01-22T08:02:16.475Z,103334.28
2023-01-22T08:03:18.637Z,103343.03
2023-01-22T08:04:20.420Z,103337.78
2023-01-22T08:05:22.915Z,103361.34
2023-01-22T08:06:24.764Z,103359.56
2023-01-22T08:07:27.847Z,103354.22
2023-01-22T08:08:29.774Z,103361.25
2023-01-22T08:09:31.567Z,103355.94
2023-01-22T08:10:33.334Z,103362.09
2023-01-22T08:11:35.299Z,103363.00
2023-01-22T08:12:38.619Z,103363.00
2023-01-22T08:13:40.683Z,103356.75
2023-01-22T08:14:42.487Z,103363.00
2023-01-22T08:15:44.421Z,103352.56
2023-01-22T08:16:46.696Z,103365.56
2023-01-22T08:17:52.917Z,103364.72
2023-01-22T08:18:55.553Z,103362.91
2023-01-22T08:19:57.426Z,103362.91
2023-01-22T08:21:03.178Z,103366.50
2023-01-22T08:22:05.831Z,103369.06
2023-01-22T08:23:07.698Z,103376.19
2023-01-22T08:24:10.419Z,103375.28
2023-01-22T08:25:12.351Z,103372.66
2023-01-22T08:26:14.268Z,103378.84
2023-01-22T08:27:16.254Z,103377.03
2023-01-22T08:28:18.096Z,103376.19
2023-01-22T08:29:20.130Z,103377.03
2023-01-22T08:30:22.705Z,103374.47
2023-01-22T08:31:28.256Z,103372.63
2023-01-22T08:32:31.086Z,103364.72
2023-01-22T08:33:34.061Z,103369.97
2023-01-22T08:34:35.889Z,103361.28
2023-01-22T08:35:40.451Z,103371.69
2023-01-22T08:36:42.286Z,103369.91
2023-01-22T08:37:44.152Z,103371.63
2023-01-22T08:38:45.973Z,103370.78
2023-01-22T08:39:47.736Z,103368.97
2023-01-22T08:40:53.220Z,103373.44
2023-01-22T08:41:57.787Z,103362.91
2023-01-22T08:42:59.819Z,103376.91
2023-01-22T08:44:01.773Z,103380.47
2023-01-22T08:45:04.088Z,103380.66
2023-01-22T08:46:05.872Z,103385.78
2023-01-22T08:47:07.808Z,103389.38
2023-01-22T08:48:09.555Z,103384.97
2023-01-22T08:49:12.377Z,103381.41
2023-01-22T08:50:14.436Z,103373.44
2023-01-22T08:51:17.008Z,103365.47
2023-01-22T08:52:18.824Z,103368.13
2023-01-22T08:53:20.599Z,103368.22
2023-01-22T08:54:22.518Z,103365.56
2023-01-22T08:55:25.605Z,103355.94
2023-01-22T08:56:27.426Z,103366.38
2023-01-22T08:57:29.216Z,103365.50
2023-01-22T08:58:31.008Z,103374.28
2023-01-22T08:59:32.796Z,103368.13
2023-01-22T09:00:34.660Z,103360.25
2023-01-22T09:01:36.549Z,103359.38
2023-01-22T09:02:38.383Z,103371.69
2023-01-22T09:03:40.246Z,103374.34
2023-01-22T09:04:41.993Z,103371.69
2023-01-22T09:05:43.893Z,103370.81
2023-01-22T09:06:46.036Z,103369.06
2023-01-22T09:07:47.800Z,103369.06
2023-01-22T09:08:49.547Z,103375.28
2023-01-22T09:09:51.327Z,103367.31
2023-01-22T09:10:53.260Z,103369.97
2023-01-22T09:11:55.099Z,103365.56
2023-01-22T09:13:00.261Z,103367.38
2023-01-22T09:14:02.780Z,103365.56
2023-01-22T09:15:04.953Z,103369.16
2023-01-22T09:16:10.950Z,103368.22
2023-01-22T09:17:12.963Z,103373.53
2023-01-22T09:18:14.803Z,103368.22
2023-01-22T09:19:16.766Z,103363.09
2023-01-22T09:20:19.058Z,103370.00
2023-01-22T09:21:21.090Z,103351.69
2023-01-22T09:22:22.891Z,103361.19
2023-01-22T09:23:24.720Z,103363.00
2023-01-22T09:24:26.479Z,103371.81
2023-01-22T09:25:29.304Z,103362.91
2023-01-22T09:26:32.460Z,103358.53
2023-01-22T09:27:34.457Z,103368.22
2023-01-22T09:28:36.361Z,103367.34
2023-01-22T09:29:38.359Z,103357.72
2023-01-22T09:30:41.890Z,103358.72
2023-01-22T09:31:43.877Z,103354.31
2023-01-22T09:32:45.760Z,103370.81
2023-01-22T09:33:47.614Z,103370.88
2023-01-22T09:34:49.367Z,103359.63
2023-01-22T09:35:51.560Z,103377.94
2023-01-22T09:36:53.415Z,103376.13
2023-01-22T09:37:55.345Z,103376.13
2023-01-22T09:38:57.195Z,103371.69
2023-01-22T09:39:59.018Z,103354.41
2023-01-22T09:41:04.964Z,103376.09
2023-01-22T09:42:14.945Z,103384.03
2023-01-22T09:43:33.322Z,103382.22
2023-01-22T09:44:41.804Z,103377.63
2023-01-22T09:45:44.738Z,103377.69
2023-01-22T09:46:52.350Z,103361.19
2023-01-22T09:47:59.808Z,103371.56
2023-01-22T09:49:08.488Z,103375.97
2023-01-22T09:50:25.499Z,103378.53
2023-01-22T09:51:27.356Z,103382.06
2023-01-22T09:52:32.733Z,103373.31
2023-01-22T09:53:35.013Z,103369.81
2023-01-22T09:54:37.151Z,103369.84
2023-01-22T09:55:47.161Z,103372.50
2023-01-22T09:56:52.015Z,103371.59
2023-01-22T09:57:56.212Z,103369.84
2023-01-22T09:59:00.967Z,103378.75
2023-01-22T10:00:04.039Z,103363.66
2023-01-22T10:01:13.497Z,103371.59
2023-01-22T10:02:18.264Z,103373.44
2023-01-22T10:03:33.307Z,103375.16
2023-01-22T10:04:41.349Z,103379.56
2023-01-22T10:05:47.229Z,103368.97
2023-01-22T10:06:51.795Z,103370.75
2023-01-22T10:09:24.168Z,103379.47
2023-01-22T10:10:27.604Z,103358.91
2023-01-22T10:11:29.399Z,103371.34
2023-01-22T10:12:31.215Z,103374.22
2023-01-22T10:13:38.862Z,103370.78
2023-01-22T10:14:42.759Z,103375.22
2023-01-22T10:15:45.234Z,103367.31
2023-01-22T10:16:47.511Z,103370.03
2023-01-22T10:17:49.580Z,103366.50
2023-01-22T10:19:00.577Z,103373.53
2023-01-22T10:20:06.815Z,103365.56
2023-01-22T10:21:19.736Z,103369.03
2023-01-22T10:22:23.979Z,103361.25
2023-01-22T10:23:26.879Z,103371.69
2023-01-22T10:24:30.228Z,103371.81
2023-01-22T10:25:33.555Z,103370.00
2023-01-22T10:26:38.799Z,103375.34
2023-01-22T10:27:40.855Z,103357.69
2023-01-22T10:28:45.895Z,103351.56
2023-01-22T10:30:09.013Z,103356.63
2023-01-22T10:31:25.568Z,103357.38
2023-01-22T10:32:29.800Z,103353.00
2023-01-22T10:33:38.877Z,103347.91
2023-01-22T10:34:40.677Z,103339.19
2023-01-22T10:35:45.918Z,103351.38
2023-01-22T10:36:53.246Z,103354.94
2023-01-22T10:37:56.757Z,103353.16
2023-01-22T10:39:04.908Z,103348.75
2023-01-22T10:40:20.250Z,103358.47
2023-01-22T10:41:22.420Z,103357.50
2023-01-22T10:42:29.337Z,103353.16
2023-01-22T10:43:39.139Z,103348.72
2023-01-22T10:44:41.218Z,103347.78
2023-01-22T10:45:59.622Z,103352.28
2023-01-22T10:47:18.868Z,103339.03
2023-01-22T10:48:21.402Z,103349.53
2023-01-22T10:49:26.056Z,103348.72
2023-01-22T10:50:27.865Z,103345.25
2023-01-22T10:51:34.507Z,103341.75
2023-01-22T10:53:02.836Z,103345.94
2023-01-22T10:54:22.352Z,103344.22
2023-01-22T10:55:28.226Z,103341.56
2023-01-22T10:56:38.663Z,103344.25
2023-01-22T10:57:41.325Z,103348.72
2023-01-22T10:58:48.622Z,103352.28
2023-01-22T11:00:21.986Z,103348.63
2023-01-22T11:01:27.780Z,103353.94
2023-01-22T11:02:29.763Z,103340.00
2023-01-22T11:03:39.475Z,103341.66
2023-01-22T11:04:41.291Z,103350.56
2023-01-22T11:05:46.600Z,103347.06
2023-01-22T11:06:53.236Z,103349.75
2023-01-22T11:08:03.836Z,103349.81
2023-01-22T11:09:14.463Z,103350.63
2023-01-22T11:10:31.109Z,103348.09
2023-01-22T11:11:38.435Z,103343.50
2023-01-22T11:12:46.617Z,103345.31
2023-01-22T11:13:56.759Z,103342.66
2023-01-22T11:15:18.807Z,103339.94
2023-01-22T11:16:23.921Z,103340.81
2023-01-22T11:17:34.243Z,103339.13
2023-01-22T11:18:39.508Z,103331.34
2023-01-22T11:19:47.763Z,103346.28
2023-01-22T11:20:54.545Z,103338.38
2023-01-22T11:21:57.722Z,103340.22
2023-01-22T11:23:01.889Z,103336.66
2023-01-22T11:24:03.669Z,103331.34
2023-01-22T11:25:10.609Z,103334.03
2023-01-22T11:26:21.459Z,103334.81
2023-01-22T11:27:26.972Z,103326.84
2023-01-22T11:28:33.951Z,103328.63
2023-01-22T11:29:43.640Z,103326.13
2023-01-22T11:30:48.005Z,103338.28
2023-01-22T11:32:37.194Z,103328.56
2023-01-22T11:34:13.760Z,103326.41
2023-01-22T11:35:22.831Z,103327.38
2023-01-22T11:36:44.072Z,103320.44
2023-01-22T11:38:06.606Z,103330.06
2023-01-22T11:39:26.913Z,103331.88
2023-01-22T11:40:54.281Z,103317.78
2023-01-22T11:42:19.023Z,103320.44
2023-01-22T11:43:45.523Z,103313.28
2023-01-22T11:45:19.352Z,103306.41
2023-01-22T11:46:30.298Z,103317.69
2023-01-22T11:47:56.862Z,103322.16
2023-01-22T11:49:06.917Z,103316.03
2023-01-22T11:50:23.484Z,103323.16
2023-01-22T11:51:40.297Z,103315.19
2023-01-22T11:53:26.272Z,103314.22
2023-01-22T11:54:45.704Z,103312.47
2023-01-22T11:56:05.829Z,103310.66
2023-01-22T11:57:16.640Z,103315.22
2023-01-22T11:58:49.101Z,103316.97
2023-01-22T12:00:30.652Z,103325.75
2023-01-22T12:02:13.971Z,103323.09
2023-01-22T12:03:34.341Z,103313.28
2023-01-22T12:04:49.914Z,103310.66
2023-01-22T12:05:57.351Z,103312.53
2023-01-22T12:07:09.973Z,103314.41
2023-01-22T12:08:39.485Z,103309.88
2023-01-22T12:09:59.616Z,103302.75
2023-01-22T12:11:38.839Z,103310.66
2023-01-22T12:13:02.677Z,103308.81
2023-01-22T12:14:38.187Z,103288.63
2023-01-22T12:15:44.459Z,103302.66
2023-01-22T12:17:14.528Z,103300.97
2023-01-22T12:18:49.809Z,103296.41
2023-01-22T12:20:28.597Z,103293.63
2023-01-22T12:21:58.012Z,103290.03
2023-01-22T12:23:06.455Z,103290.19
2023-01-22T12:24:20.504Z,103284.91
2023-01-22T12:25:51.872Z,103279.56
2023-01-22T12:27:20.095Z,103283.16
2023-01-22T12:28:26.858Z,103281.28
2023-01-22T12:29:37.847Z,103277.03
2023-01-22T12:30:59.933Z,103273.44